ADDS METAR Data INFO
IDs: Format: Raw Decoded Include TAF

Data at: 0512 UTC 22 Jul 2017

KEAN 220455Z AUTO 18013G16KT 10SM CLR 21/11 A3008 RMK AO2 T02100105
KEAN 220435Z AUTO 19009KT 10SM CLR 21/12 A3008 RMK AO2 T02060116
KEAN 220415Z AUTO 18011G17KT 10SM CLR 21/11 A3008 RMK AO2 T02100114
KEAN 220355Z AUTO 15011G16KT 10SM CLR 22/10 A3008 RMK AO2 T02160102
KEAN 220335Z AUTO 12010G17KT 10SM CLR 21/12 A3008 RMK AO2 T02090115
KEAN 220315Z AUTO 12011G19KT 10SM SCT110 22/11 A3009 RMK AO2 T02150108
KEAN 220255Z AUTO 15016G21KT 120V190 10SM -RA SCT045 SCT080 BKN110 22/10 A3011 RMK AO2 T02220103
KEAN 220235Z AUTO 13019G30KT 10SM -RA OVC100 21/12 A3009 RMK AO2 T02080118
KEAN 220215Z AUTO 15020G33KT 10SM -TSDZ OVC110 22/11 A3012 RMK AO2 LTG DSNT SE T02150114
KEAN 220155Z AUTO 14025G31KT 10SM -VCTSRA BKN100 OVC120 20/13 A3012 RMK AO2 LTG DSNT SE AND S T02030130
KEAN 220135Z AUTO 16021G31KT 10SM VCTSRA BKN090 OVC110 20/13 A3011 RMK AO2 LTG DSNT ALQS T01980128
KEAN 220115Z AUTO 18016G32KT 5SM -RA SCT055 BKN090 OVC110 21/13 A3011 RMK AO2 LTG DSNT ALQS T02090126
KEAN 220055Z AUTO 22013G20KT 200V260 10SM -VCTSRA SCT055 SCT065 BKN090 27/08 A3008 RMK AO2 LTG DSNT ALQS T02680078
KEAN 220035Z AUTO 30012G21KT 270V330 10SM SCT065 SCT075 SCT100 27/07 A3007 RMK AO2 LTG DSNT ALQS T02690071
KEAN 220015Z AUTO 30020G33KT 10SM SCT065 SCT075 OVC110 27/08 A3004 RMK AO2 LTG DSNT ALQS T02670076
KEAN 212355Z AUTO 30003KT 10SM SCT032 SCT050 BKN110 29/11 A3003 RMK AO2 LTG DSNT W AND NW T02930111 10342 20293
KEAN 212335Z AUTO 30004KT 10SM BKN110 31/09 A3003 RMK AO2 LTG DSNT W AND NW T03090088
KEAN 212315Z AUTO 00000KT 10SM CLR 32/08 A3003 RMK AO2 LTG DSNT W T03170078
KEAN 212255Z AUTO 00000KT 10SM CLR 32/07 A3003 RMK AO2 LTG DSNT S T03220071
KEAN 212235Z AUTO 36004KT 10SM CLR 34/07 A3003 RMK AO2 LTG DSNT S AND W T03400073
KEAN 212215Z AUTO 34003KT 10SM CLR 32/08 A3004 RMK AO2 T03220083
KEAN 212155Z AUTO 00000KT 10SM CLR 33/08 A3004 RMK AO2 LTG DSNT S T03290079
KEAN 212135Z AUTO 35004KT 10SM CLR 33/08 A3004 RMK AO2 T03270083
KEAN 212115Z AUTO 34005KT 10SM SCT120 33/08 A3004 RMK AO2 T03270084
KEAN 212055Z AUTO 33004KT 10SM SCT120 31/09 A3005 RMK AO2 T03070090
KEAN 212035Z AUTO 00000KT 10SM SCT120 31/09 A3005 RMK AO2 T03120091
KEAN 212015Z AUTO 04006KT 10SM CLR 33/09 A3006 RMK AO2 T03300093
KEAN 211955Z AUTO 01006KT 10SM CLR 34/09 A3007 RMK AO2 T03380094
KEAN 211935Z AUTO 33006KT 10SM CLR 34/11 A3007 RMK AO2 T03350105
KEAN 211915Z AUTO 34006KT 10SM CLR 32/10 A3007 RMK AO2 LTG DSNT SW T03190098
KEAN 211855Z AUTO 33006KT 10SM CLR 33/11 A3008 RMK AO2 T03300108
KEAN 211835Z AUTO 29007KT 10SM CLR 32/12 A3008 RMK AO2 T03240115
KEAN 211815Z AUTO 36008KT 10SM CLR 32/12 A3008 RMK AO2 LTG DSNT W T03220123
KEAN 211755Z AUTO 36005KT 10SM CLR 32/11 A3008 RMK AO2 T03190113 10324 20222
KEAN 211735Z AUTO 36007KT 10SM CLR 31/12 A3008 RMK AO2 T03140121
KEAN 211715Z AUTO 29003KT 10SM CLR 32/11 A3008 RMK AO2 T03150108
KEAN 211655Z AUTO 23003KT 10SM CLR 30/10 A3007 RMK AO2 T03030104
KEAN 211635Z AUTO 23008KT 10SM CLR 32/10 A3007 RMK AO2 T03150103
KEAN 211615Z AUTO 25009KT 10SM CLR 31/10 A3007 RMK AO2 T03080098
KEAN 211555Z AUTO 26005KT 10SM CLR 30/11 A3007 RMK AO2 T02950110
KEAN 211535Z AUTO 24007KT 10SM CLR 29/12 A3007 RMK AO2 T02870122
KEAN 211515Z AUTO 24008G14KT 10SM CLR 28/12 A3007 RMK AO2 T02790120
KEAN 211455Z AUTO 23005KT 10SM CLR 27/13 A3007 RMK AO2 T02700126
KEAN 211435Z AUTO 22005KT 10SM CLR 26/12 A3006 RMK AO2 T02610123
KEAN 211415Z AUTO 22003KT 10SM CLR 25/13 A3005 RMK AO2 T02510128
KEAN 211355Z AUTO 18003KT 10SM CLR 24/12 A3004 RMK AO2 T02350123
KEAN 211335Z AUTO 18005KT 10SM CLR 23/12 A3004 RMK AO2 T02310117
KEAN 211315Z AUTO 21007G15KT 10SM CLR 24/11 A3004 RMK AO2 LTG DSNT N T02350110
KEAN 211255Z AUTO 22008G14KT 180V240 10SM CLR 23/11 A3003 RMK AO2 T02310112
KEAN 211235Z AUTO 21009G16KT 10SM CLR 23/12 A3003 RMK AO2 T02270115
KEAN 211215Z AUTO 22010G15KT 10SM CLR 23/12 A3002 RMK AO2 T02260116
KEAN 211155Z AUTO 23009KT 10SM CLR 22/12 A3001 RMK AO2 70005 T02210117 10233 20183
KEAN 211135Z AUTO 21007KT 10SM CLR 22/12 A3001 RMK AO2 T02160120
KEAN 211115Z AUTO 23007KT 10SM CLR 22/12 A3001 RMK AO2 T02170120
KEAN 211055Z AUTO 22012G19KT 10SM CLR 22/12 A3001 RMK AO2 T02230120
KEAN 211035Z AUTO 21012G18KT 10SM CLR 23/12 A3000 RMK AO2 T02250118
KEAN 211015Z AUTO 18013G18KT 10SM CLR 22/13 A3000 RMK AO2 T02160128
KEAN 210955Z AUTO 17011G17KT 10SM CLR 22/12 A3001 RMK AO2 T02180123
KEAN 210935Z AUTO 19008G15KT 10SM CLR 23/12 A3002 RMK AO2 T02250119
KEAN 210915Z AUTO 21008KT 10SM CLR 23/12 A3001 RMK AO2 T02260121
KEAN 210855Z AUTO 17009KT 10SM CLR 20/14 A3003 RMK AO2 T02040139
KEAN 210835Z AUTO 16003KT 10SM SCT080 SCT110 20/15 A3003 RMK AO2 T02000146
KEAN 210815Z AUTO 15004G15KT 10SM SCT070 SCT095 19/15 A3004 RMK AO2 T01940150
KEAN 210755Z AUTO 16005KT 10SM -RA SCT060 SCT080 BKN095 19/15 A3004 RMK AO2 T01920152
KEAN 210735Z AUTO 13008KT 10SM SCT120 20/15 A3005 RMK AO2 T02010145
KEAN 210715Z AUTO 23005KT 10SM CLR 19/15 A3006 RMK AO2 T01940145
KEAN 210655Z AUTO 26005KT 10SM CLR 19/15 A3008 RMK AO2 T01930145 403580183
KEAN 210635Z AUTO 26006KT 10SM CLR 19/15 A3009 RMK AO2 T01860148
KEAN 210615Z AUTO 28009G19KT 10SM CLR 19/15 A3010 RMK AO2 T01850150
KEAN 210555Z AUTO 27013G21KT 10SM SCT110 18/15 A3010 RMK AO2 60001 T01840151 10270 20184
KEAN 210535Z AUTO 31011G21KT 10SM -RA BKN110 19/15 A3009 RMK AO2 LTG DSNT N T01900148
KEAN 210515Z AUTO 29015G22KT 10SM -RA OVC110 20/14 A3011 RMK AO2 LTG DSNT NW T02010144
KEAN 210455Z AUTO 29016G24KT 10SM OVC110 22/13 A3011 RMK AO2 LTG DSNT NW T02210132
KEAN 210435Z AUTO 30015G32KT 10SM BKN110 24/13 A3010 RMK AO2 LTG DSNT N AND NW T02350134
KEAN 210415Z AUTO 32003KT 10SM BKN120 24/15 A3006 RMK AO2 T02350151
KEAN 210355Z AUTO 00000KT 10SM BKN110 23/15 A3004 RMK AO2 LTG DSNT E AND NW T02320154
KEAN 210335Z AUTO 00000KT 10SM VCTS SCT110 23/16 A3003 RMK AO2 LTG DSNT N THRU SE T02310155
KEAN 210315Z AUTO 14004KT 10SM VCTS SCT110 24/15 A3003 RMK AO2 LTG DSNT N THRU SE T02430147
KEAN 210255Z AUTO 14009KT 10SM -VCTSRA SCT110 24/14 A3003 RMK AO2 LTG DSNT N SE AND S P0001 60001 T02440139
KEAN 210235Z AUTO 13010KT 10SM -TSRA OVC110 24/16 A3002 RMK AO2 LTG DSNT ALQS P0001 T02370158
KEAN 210215Z AUTO 17005KT 10SM TS SCT110 26/16 A3003 RMK AO2 LTG DSNT S THRU NW T02570163
KEAN 210155Z AUTO 11008KT 10SM CLR 26/16 A3000 RMK AO2 LTG DSNT SW THRU NW T02580156
KEAN 210135Z AUTO 11006KT 10SM CLR 26/15 A2999 RMK AO2 LTG DSNT W T02600152
KEAN 210115Z AUTO 11007KT 10SM CLR 27/15 A3000 RMK AO2 LTG DSNT SW AND W T02650154
KEAN 210055Z AUTO 11008KT 10SM CLR 27/15 A3000 RMK AO2 T02670153
KEAN 210035Z AUTO 09008G14KT 10SM CLR 27/16 A3001 RMK AO2 LTG DSNT NW T02680162
KEAN 210015Z AUTO 09012G21KT 10SM CLR 25/16 A3002 RMK AO2 LTG DSNT SE AND S T02480163
KEAN 202355Z AUTO 11019G25KT 10SM CLR 27/17 A3003 RMK AO2 LTG DSNT E P0004 60004 T02660166 10358 20248
KEAN 202335Z AUTO 09009KT 10SM -RA SCT019 SCT044 SCT070 26/15 A3000 RMK AO2 LTG DSNT SE P0004 T02610152
KEAN 202315Z AUTO 19007G24KT 7SM TSRA SCT048 SCT065 BKN090 27/12 A3005 RMK AO2 LTG DSNT ALQS P0001 T02740124
KEAN 202255Z AUTO 35003KT 10SM -VCTSRA SCT050 SCT065 BKN100 30/15 A3004 RMK AO2 LTG DSNT SE THRU SW T03010149
KEAN 202235Z AUTO 07005G15KT 10SM SCT065 SCT075 31/13 A3004 RMK AO2 LTG DSNT S AND W T03110134
KEAN 202215Z AUTO 07008G18KT 10SM VCTS CLR 32/13 A3004 RMK AO2 LTG DSNT SW AND W T03150132
KEAN 202155Z AUTO 07012G15KT 10SM CLR 32/12 A3004 RMK AO2 LTG DSNT SW AND W T03210121
KEAN 202135Z AUTO 06017G22KT 10SM CLR 34/12 A3005 RMK AO2 T03420122
KEAN 202115Z AUTO 09011KT 10SM CLR 35/10 A3006 RMK AO2 LTG DSNT W T03540099
KEAN 202055Z AUTO 06007KT 10SM CLR 35/09 A3007 RMK AO2 T03530092
KEAN 202035Z AUTO 08008KT 10SM CLR 34/09 A3008 RMK AO2 T03400089
KEAN 202015Z AUTO 00000KT 10SM CLR 34/09 A3008 RMK AO2 T03380086
KEAN 201955Z AUTO 10003KT 10SM CLR 34/09 A3009 RMK AO2 T03390086
KEAN 201935Z AUTO 13009G14KT 10SM CLR 34/10 A3011 RMK AO2 T03440095
KEAN 201915Z AUTO 13007KT 10SM CLR 34/09 A3011 RMK AO2 T03360094
KEAN 201855Z AUTO 13005KT 10SM CLR 34/10 A3012 RMK AO2 T03400098
KEAN 201835Z AUTO 20005KT 10SM CLR 33/10 A3012 RMK AO2 T03290099
KEAN 201815Z AUTO 00000KT 10SM CLR 33/10 A3014 RMK AO2 T03250101
KEAN 201755Z AUTO 00000KT 10SM CLR 31/11 A3014 RMK AO2 T03120110 10313 20195
KEAN 201735Z AUTO 11004KT 10SM CLR 31/12 A3015 RMK AO2 T03060117
KEAN 201715Z AUTO 18003KT 10SM CLR 30/12 A3016 RMK AO2 T03010118